首页
METAR-TAF:

METAR-TAF

机场 :

Grayling Army Airfield

Grayling, 密歇根州, 美国

纬度: 44-40-49N, 经度: 084-43-44W, 海拔: 353米

当前天气观测

该预报发布于1小时和4分钟前的02:58 UTC
风速7节,风向
温度 -4°C
湿度 68%
气压 1020 hPa
能見度: 16.1公里
少量云层高于13000英尺

METAR: KGOV 260258Z AUTO 36007KT 10SM FEW130 M04/M09 A3012 RMK AO2 SLPNO T10371094 52011 $

时间: 23:02 (04:02 UTC)


TAF: 丢失

超过4000个机场的气象观测和天气预报(METAR&TAF报告)。

可查询的气象台以黄色和红色小点在地图上表示。

将鼠标移到小点上方,可查看气象台名称。

然后点击查看天气观测和预报。

如需切换地图:点击带黑十字的绿色按钮放大地图;点击带横线的绿色按钮缩小地图;或者点击绿色箭头查看邻近地区的地图。


METAR-TAF: